Time;durP1;ratioP1;P1;durP2;ratioP2;P2;SDS_P1;SDS_P2;PMS_P1;PMS_P2;Temp;Humidity;BMP_temperature;BMP_pressure;BME280_temperature;BME280_humidity;BME280_pressure;Samples;Min_cycle;Max_cycle;Signal;HPM_P1;HPM_P2
2021/03/02 00:01:05;;;;;;;44.92;21.17;;;6.40;78.80;;;;;;5097126;28;20287;-86
2021/03/02 00:03:37;;;;;;;48.15;22.00;;;6.40;78.80;;;;;;5097205;28;20200;-88
2021/03/02 00:06:04;;;;;;;42.53;20.70;;;6.30;79.10;;;;;;5097253;28;20183;-87
2021/03/02 00:08:30;;;;;;;51.35;22.45;;;6.30;79.10;;;;;;5098215;28;20207;-87
2021/03/02 00:10:59;;;;;;;52.22;23.77;;;6.30;79.20;;;;;;5091124;28;20185;-87
2021/03/02 00:13:24;;;;;;;49.10;21.40;;;6.30;79.20;;;;;;5083181;28;20183;-86
2021/03/02 00:15:51;;;;;;;50.90;21.97;;;6.20;79.20;;;;;;5083518;28;20268;-88
2021/03/02 00:18:24;;;;;;;61.65;21.95;;;6.30;79.30;;;;;;5088720;28;20454;-87
2021/03/02 00:20:57;;;;;;;52.53;22.35;;;6.20;79.10;;;;;;5085513;28;20181;-88
2021/03/02 00:23:29;;;;;;;48.67;22.90;;;6.20;79.20;;;;;;5085504;28;20200;-87
2021/03/02 00:25:58;;;;;;;41.78;19.58;;;6.10;79.30;;;;;;5083370;28;20172;-86
2021/03/02 00:28:26;;;;;;;47.83;23.20;;;6.10;79.50;;;;;;5082575;28;20176;-87
2021/03/02 00:30:54;;;;;;;50.72;22.67;;;6.20;79.50;;;;;;5083321;28;20177;-86
2021/03/02 00:33:24;;;;;;;47.20;21.35;;;6.10;79.60;;;;;;5083079;28;20176;-86
2021/03/02 00:35:50;;;;;;;47.47;21.05;;;6.10;79.80;;;;;;5083732;28;20723;-88
2021/03/02 00:38:16;;;;;;;53.95;22.92;;;6.20;79.80;;;;;;5083395;28;20195;-87
2021/03/02 00:40:43;;;;;;;53.08;21.30;;;6.10;79.70;;;;;;5082173;28;20197;-88
2021/03/02 00:43:09;;;;;;;47.78;21.40;;;6.10;79.80;;;;;;5081447;28;20191;-87
2021/03/02 00:45:35;;;;;;;46.63;20.90;;;6.10;79.80;;;;;;5083279;28;20176;-87
2021/03/02 00:48:00;;;;;;;54.23;21.57;;;6.10;79.90;;;;;;5082162;28;20180;-87
2021/03/02 00:50:27;;;;;;;66.30;24.03;;;6.10;80.00;;;;;;5081087;28;20172;-89
2021/03/02 00:52:54;;;;;;;55.60;25.00;;;6.10;80.10;;;;;;5080190;28;20446;-88
2021/03/02 00:55:20;;;;;;;55.72;23.05;;;6.20;80.10;;;;;;5079945;28;20279;-87
2021/03/02 00:57:45;;;;;;;50.95;22.85;;;6.10;80.00;;;;;;5079580;28;20180;-87
2021/03/02 01:00:12;;;;;;;54.70;22.87;;;6.10;80.00;;;;;;5077319;28;20192;-88
2021/03/02 01:02:39;;;;;;;53.47;21.88;;;6.00;79.90;;;;;;5077272;28;20200;-88
2021/03/02 01:05:06;;;;;;;53.00;22.10;;;6.00;80.00;;;;;;5080688;28;20208;-88
2021/03/02 01:07:33;;;;;;;55.45;23.10;;;5.90;80.00;;;;;;5077319;28;20176;-87
2021/03/02 01:09:59;;;;;;;57.80;24.58;;;5.90;80.20;;;;;;5076820;28;20238;-87
2021/03/02 01:12:28;;;;;;;53.50;23.07;;;5.80;80.10;;;;;;5076711;28;20204;-88
2021/03/02 01:14:58;;;;;;;53.80;26.00;;;5.80;80.30;;;;;;5076359;28;20449;-87
2021/03/02 01:17:25;;;;;;;70.57;24.63;;;5.90;80.40;;;;;;5076935;28;20527;-87
2021/03/02 01:19:51;;;;;;;56.08;22.83;;;5.90;80.40;;;;;;5076419;28;20203;-87
2021/03/02 01:22:18;;;;;;;59.25;22.70;;;5.90;80.40;;;;;;5075385;28;20576;-87
2021/03/02 01:24:44;;;;;;;59.60;24.02;;;5.90;80.40;;;;;;5076100;28;20204;-87
2021/03/02 01:27:10;;;;;;;50.80;22.00;;;6.00;80.30;;;;;;5075800;28;20183;-87
2021/03/02 01:29:36;;;;;;;52.20;21.57;;;6.00;80.30;;;;;;5075883;28;20222;-87
2021/03/02 01:32:02;;;;;;;60.17;22.23;;;5.90;80.30;;;;;;5076715;28;20193;-88
2021/03/02 01:34:27;;;;;;;55.30;24.17;;;6.00;80.30;;;;;;5075496;28;20415;-87
2021/03/02 01:36:53;;;;;;;62.37;24.83;;;5.90;80.20;;;;;;5075069;28;20185;-87
2021/03/02 01:39:19;;;;;;;55.70;23.57;;;6.00;80.20;;;;;;5079922;28;20419;-88
2021/03/02 01:41:52;;;;;;;52.50;21.97;;;6.00;80.00;;;;;;5087087;28;20224;-86
2021/03/02 01:44:18;;;;;;;75.97;24.00;;;5.90;80.00;;;;;;5084809;28;20201;-86
2021/03/02 01:46:46;;;;;;;50.40;23.63;;;5.90;80.00;;;;;;5086224;28;20165;-86
2021/03/02 01:49:11;;;;;;;53.13;23.52;;;6.00;80.00;;;;;;5096672;28;20168;-85
2021/03/02 01:51:38;;;;;;;61.70;22.60;;;6.00;80.00;;;;;;5095566;28;20208;-85
2021/03/02 01:54:04;;;;;;;58.50;26.75;;;5.90;80.00;;;;;;5088134;28;20434;-87
2021/03/02 01:56:29;;;;;;;69.93;25.15;;;5.90;80.00;;;;;;5079352;28;20581;-85
2021/03/02 01:58:55;;;;;;;52.30;22.37;;;5.70;80.00;;;;;;5079035;28;20176;-86
2021/03/02 02:01:21;;;;;;;51.97;23.05;;;5.60;80.30;;;;;;5078139;28;20196;-86
2021/03/02 02:04:19;;;;;;;56.10;23.43;;;5.70;80.50;;;;;;5077967;28;20284;-87
2021/03/02 02:07:03;;;;;;;52.38;23.17;;;5.60;80.50;;;;;;5077746;28;20180;-87
2021/03/02 02:09:51;;;;;;;53.42;23.48;;;5.70;80.60;;;;;;5076545;28;20180;-87
2021/03/02 02:12:25;;;;;;;51.03;21.80;;;5.70;80.60;;;;;;5075371;28;20192;-87
2021/03/02 02:15:18;;;;;;;51.28;21.90;;;5.70;80.50;;;;;;5076619;28;20675;-86
2021/03/02 02:18:08;;;;;;;69.35;25.48;;;5.80;80.40;;;;;;5057555;28;20188;-85
2021/03/02 02:21:11;;;;;;;52.00;23.92;;;5.90;80.30;;;;;;5056731;28;20191;-86
2021/03/02 02:23:45;;;;;;;48.35;24.75;;;5.80;80.10;;;;;;5054929;28;20201;-86
2021/03/02 02:26:20;;;;;;;54.20;21.65;;;5.80;80.20;;;;;;5056054;28;20172;-86
2021/03/02 02:28:48;;;;;;;65.03;25.40;;;5.70;80.20;;;;;;5066213;28;20195;-86
2021/03/02 02:31:15;;;;;;;57.30;21.58;;;5.70;80.30;;;;;;5077875;28;20207;-87
2021/03/02 02:33:44;;;;;;;61.85;22.50;;;5.70;80.30;;;;;;5077938;28;20224;-86
2021/03/02 02:36:12;;;;;;;48.67;23.58;;;5.70;80.30;;;;;;5077393;28;20253;-84
2021/03/02 02:38:43;;;;;;;53.00;23.40;;;5.70;80.40;;;;;;5079484;28;20173;-87
2021/03/02 02:41:10;;;;;;;46.95;21.52;;;5.70;80.40;;;;;;5074718;28;20705;-86
2021/03/02 02:43:38;;;;;;;56.67;23.23;;;5.60;80.30;;;;;;5074673;28;20200;-86
2021/03/02 02:46:03;;;;;;;50.92;21.45;;;5.60;80.50;;;;;;5075536;28;20249;-87
2021/03/02 02:48:31;;;;;;;59.60;23.07;;;5.60;80.50;;;;;;5075322;28;20267;-86
2021/03/02 02:50:57;;;;;;;44.42;21.48;;;5.70;80.60;;;;;;5077349;28;20211;-87
2021/03/02 02:53:23;;;;;;;46.78;21.45;;;5.70;80.60;;;;;;5077675;28;20192;-86
2021/03/02 02:56:07;;;;;;;50.27;23.60;;;5.80;80.50;;;;;;5058699;28;20184;-87
2021/03/02 02:59:00;;;;;;;52.80;21.30;;;5.70;80.40;;;;;;5058088;28;20414;-87
2021/03/02 03:01:48;;;;;;;56.92;21.50;;;5.70;80.40;;;;;;5059242;28;20197;-87
2021/03/02 03:04:19;;;;;;;49.83;20.80;;;5.80;80.20;;;;;;5058360;28;20580;-87
2021/03/02 03:06:48;;;;;;;59.08;24.15;;;5.70;80.00;;;;;;5057763;28;20178;-87
2021/03/02 03:09:14;;;;;;;50.50;23.23;;;5.60;80.70;;;;;;5057658;28;20540;-87
2021/03/02 03:11:48;;;;;;;58.17;22.60;;;5.50;80.10;;;;;;5057221;28;20194;-87
2021/03/02 03:14:16;;;;;;;53.30;23.58;;;5.40;80.20;;;;;;5059001;28;20161;-87
2021/03/02 03:16:44;;;;;;;54.53;23.30;;;5.40;80.40;;;;;;5057566;28;20613;-87
2021/03/02 03:19:19;;;;;;;51.92;21.58;;;5.40;80.50;;;;;;5057858;28;20288;-86
2021/03/02 03:21:46;;;;;;;47.92;21.60;;;5.50;80.50;;;;;;5057455;28;20204;-88
2021/03/02 03:24:12;;;;;;;42.85;21.60;;;5.50;80.40;;;;;;5057199;28;20743;-88
2021/03/02 03:26:38;;;;;;;47.90;21.13;;;5.60;80.40;;;;;;5058020;28;20177;-87
2021/03/02 03:29:04;;;;;;;51.08;22.60;;;5.40;80.20;;;;;;5058726;28;20416;-88
2021/03/02 03:31:30;;;;;;;43.38;21.20;;;5.50;80.50;;;;;;5074969;28;20694;-87
2021/03/02 03:33:58;;;;;;;52.58;23.50;;;5.40;80.50;;;;;;5079606;28;20177;-87
2021/03/02 03:36:26;;;;;;;48.65;22.83;;;5.40;80.40;;;;;;5081395;28;20173;-87
2021/03/02 03:38:52;;;;;;;54.13;22.20;;;5.40;80.60;;;;;;5082017;28;20183;-87
2021/03/02 03:41:18;;;;;;;50.13;22.45;;;5.40;80.70;;;;;;5080033;28;20244;-87
2021/03/02 03:43:43;;;;;;;55.30;23.93;;;5.30;80.70;;;;;;5079487;28;20200;-86
2021/03/02 03:46:09;;;;;;;47.50;20.17;;;5.40;80.70;;;;;;5079693;28;20491;-86
2021/03/02 03:48:35;;;;;;;44.37;19.73;;;5.40;80.60;;;;;;5080095;28;20640;-87
2021/03/02 03:51:02;;;;;;;56.00;24.37;;;5.30;80.70;;;;;;5078914;28;20204;-87
2021/03/02 03:53:32;;;;;;;38.60;20.17;;;5.40;80.70;;;;;;5078568;28;20917;-86
2021/03/02 03:55:59;;;;;;;50.58;21.90;;;5.40;80.60;;;;;;5060983;28;20559;-87
2021/03/02 03:58:29;;;;;;;48.03;21.80;;;5.30;80.50;;;;;;5076662;28;20183;-87
2021/03/02 04:00:56;;;;;;;41.03;21.80;;;5.40;80.50;;;;;;5067865;28;20195;-87
2021/03/02 04:03:27;;;;;;;45.22;21.67;;;5.40;80.40;;;;;;5077381;28;20226;-86
2021/03/02 04:05:53;;;;;;;37.38;18.65;;;5.40;80.30;;;;;;5076216;28;20184;-87
2021/03/02 04:08:18;;;;;;;43.57;20.60;;;5.40;80.30;;;;;;5075425;28;20573;-87
2021/03/02 04:10:45;;;;;;;43.93;19.37;;;5.40;80.30;;;;;;5075576;28;21001;-87
2021/03/02 04:13:15;;;;;;;45.90;21.45;;;5.40;81.00;;;;;;5075942;28;20210;-87
2021/03/02 04:15:43;;;;;;;49.67;20.88;;;5.40;80.20;;;;;;5058998;28;20188;-87
2021/03/02 04:18:11;;;;;;;49.15;20.27;;;5.50;80.20;;;;;;5075897;28;20181;-87
2021/03/02 04:20:38;;;;;;;47.70;21.88;;;5.40;80.00;;;;;;5074965;28;20177;-87
2021/03/02 04:23:03;;;;;;;48.55;19.75;;;5.40;80.10;;;;;;5075370;28;20568;-87
2021/03/02 04:25:31;;;;;;;43.00;21.23;;;5.30;80.20;;;;;;5075578;28;20184;-87
2021/03/02 04:27:57;;;;;;;50.83;21.77;;;5.20;80.80;;;;;;5075383;28;20188;-88
2021/03/02 04:30:23;;;;;;;43.28;21.20;;;5.20;80.30;;;;;;5075752;28;20199;-87
2021/03/02 04:32:49;;;;;;;47.78;21.42;;;5.30;80.40;;;;;;5075447;28;20200;-88
2021/03/02 04:35:15;;;;;;;49.40;22.20;;;5.10;80.50;;;;;;5075891;28;20543;-88
2021/03/02 04:37:40;;;;;;;39.73;19.63;;;5.10;80.60;;;;;;5076328;28;20172;-87
2021/03/02 04:40:07;;;;;;;49.63;21.60;;;5.20;80.40;;;;;;5077146;28;20403;-87
2021/03/02 04:42:33;;;;;;;38.80;19.88;;;5.10;80.50;;;;;;5074899;28;20443;-87
2021/03/02 04:44:59;;;;;;;48.10;19.70;;;5.20;80.50;;;;;;5075144;28;20216;-87
2021/03/02 04:47:25;;;;;;;39.50;20.47;;;5.10;80.60;;;;;;5076681;28;20898;-87
2021/03/02 04:49:50;;;;;;;55.97;21.93;;;5.00;80.70;;;;;;5075484;28;20644;-86
2021/03/02 04:52:17;;;;;;;42.80;20.70;;;5.00;80.70;;;;;;5075155;28;20192;-89
2021/03/02 04:54:44;;;;;;;45.45;20.75;;;5.00;80.70;;;;;;5067765;28;20419;-88
2021/03/02 04:57:10;;;;;;;45.53;19.50;;;5.10;80.80;;;;;;5056346;28;20185;-88
2021/03/02 04:59:35;;;;;;;40.03;20.40;;;5.10;80.70;;;;;;5057429;28;20179;-88
2021/03/02 05:02:01;;;;;;;45.07;20.23;;;5.10;80.60;;;;;;5074399;28;20445;-88
2021/03/02 05:04:27;;;;;;;39.97;21.47;;;5.10;80.50;;;;;;5075884;28;20200;-88
2021/03/02 05:06:52;;;;;;;45.57;18.70;;;5.20;80.40;;;;;;5076091;28;20816;-88
2021/03/02 05:09:18;;;;;;;38.33;20.33;;;5.30;80.30;;;;;;5074797;28;20214;-87
2021/03/02 05:11:44;;;;;;;45.07;21.23;;;5.20;80.10;;;;;;5075245;28;20667;-87
2021/03/02 05:14:10;;;;;;;44.40;20.20;;;5.10;80.90;;;;;;5074757;28;20624;-88
2021/03/02 05:16:35;;;;;;;47.00;21.97;;;5.20;80.10;;;;;;5074943;28;20181;-88
2021/03/02 05:19:01;;;;;;;52.27;21.53;;;5.10;80.20;;;;;;5074788;28;20180;-87
2021/03/02 05:21:28;;;;;;;51.80;20.67;;;5.10;80.20;;;;;;5075805;28;20438;-87
2021/03/02 05:23:54;;;;;;;46.78;20.13;;;5.10;80.20;;;;;;5074277;28;20204;-87
2021/03/02 05:26:22;;;;;;;44.87;20.57;;;5.10;80.40;;;;;;5074253;28;20271;-87
2021/03/02 05:28:51;;;;;;;47.42;20.95;;;5.20;80.30;;;;;;5074393;28;20184;-87
2021/03/02 05:31:17;;;;;;;39.85;20.33;;;5.00;80.20;;;;;;5075298;28;20197;-87
2021/03/02 05:33:43;;;;;;;40.43;20.53;;;5.00;80.40;;;;;;5074380;28;20180;-87
2021/03/02 05:36:09;;;;;;;43.87;19.47;;;5.10;80.40;;;;;;5074147;28;20181;-87
2021/03/02 05:38:37;;;;;;;37.45;18.83;;;5.20;80.40;;;;;;5073909;28;20418;-87
2021/03/02 05:41:03;;;;;;;38.75;19.02;;;5.10;80.20;;;;;;5073578;28;20276;-88
2021/03/02 05:43:30;;;;;;;38.60;20.02;;;5.20;80.10;;;;;;5074202;28;20667;-88
2021/03/02 05:45:56;;;;;;;43.05;18.48;;;5.20;80.10;;;;;;5074292;28;20180;-88
2021/03/02 05:48:25;;;;;;;47.70;20.63;;;5.20;80.00;;;;;;5073672;28;20248;-88
2021/03/02 05:50:55;;;;;;;46.70;20.05;;;5.30;79.90;;;;;;5073810;28;20200;-88
2021/03/02 05:53:22;;;;;;;41.83;19.23;;;5.20;79.70;;;;;;5074169;28;20231;-89
2021/03/02 05:55:48;;;;;;;39.78;18.88;;;5.30;79.80;;;;;;5075002;28;20196;-87
2021/03/02 05:58:15;;;;;;;43.25;20.85;;;5.30;79.80;;;;;;5074425;28;20237;-88
2021/03/02 06:00:41;;;;;;;37.05;19.73;;;5.20;79.40;;;;;;5073843;28;20184;-87
2021/03/02 06:03:07;;;;;;;39.75;19.63;;;5.20;79.60;;;;;;5075300;28;20200;-88
2021/03/02 06:05:36;;;;;;;36.83;17.85;;;5.30;79.70;;;;;;5074457;28;20184;-88
2021/03/02 06:08:03;;;;;;;42.65;18.90;;;5.30;79.60;;;;;;5074607;28;20176;-88
2021/03/02 06:10:30;;;;;;;45.33;18.92;;;5.20;79.50;;;;;;5076718;28;20652;-88
2021/03/02 06:12:57;;;;;;;39.78;18.58;;;5.00;79.50;;;;;;5061054;28;20201;-88
2021/03/02 06:15:25;;;;;;;32.03;17.77;;;5.00;79.70;;;;;;5057237;28;20177;-88
2021/03/02 06:18:13;;;;;;;52.50;23.13;;;5.10;79.90;;;;;;5055479;28;20177;-88
2021/03/02 06:20:41;;;;;;;63.20;27.55;;;5.10;79.80;;;;;;5053867;28;20207;-88
2021/03/02 06:23:26;;;;;;;58.85;25.45;;;5.10;79.90;;;;;;5073344;28;20196;-86
2021/03/02 06:26:24;;;;;;;66.35;25.08;;;5.10;79.90;;;;;;5078289;28;20535;-88
2021/03/02 06:29:02;;;;;;;47.42;24.92;;;4.90;79.90;;;;;;5076843;28;20283;-82
2021/03/02 06:31:36;;;;;;;54.70;22.77;;;4.90;79.90;;;;;;5076927;28;20718;-82
2021/03/02 06:34:12;;;;;;;33.95;19.05;;;5.10;79.90;;;;;;5077084;28;20179;-82
2021/03/02 06:36:43;;;;;;;38.13;20.30;;;5.20;79.60;;;;;;5077927;28;20180;-84
2021/03/02 06:39:31;;;;;;;44.80;20.17;;;5.20;79.10;;;;;;5076357;28;20271;-83
2021/03/02 06:42:22;;;;;;;39.92;19.02;;;5.30;78.90;;;;;;5077165;28;20216;-82
2021/03/02 06:44:53;;;;;;;37.58;18.35;;;5.20;78.50;;;;;;5073405;28;20227;-82
2021/03/02 06:47:34;;;;;;;41.83;19.63;;;5.20;78.50;;;;;;5080045;28;20187;-81
2021/03/02 06:50:02;;;;;;;42.92;18.88;;;5.10;78.80;;;;;;5078518;28;20183;-81
2021/03/02 06:52:38;;;;;;;38.05;18.08;;;4.90;78.90;;;;;;5076656;28;20201;-82
2021/03/02 06:55:20;;;;;;;46.83;18.45;;;4.80;79.20;;;;;;5077169;28;20184;-81
2021/03/02 06:57:47;;;;;;;33.38;16.05;;;4.70;79.70;;;;;;5077733;28;20271;-81
2021/03/02 07:00:15;;;;;;;45.67;19.98;;;4.80;80.00;;;;;;5073840;28;20237;-81
2021/03/02 07:02:46;;;;;;;37.47;18.05;;;5.00;79.90;;;;;;5076424;28;20204;-81
2021/03/02 07:05:13;;;;;;;38.53;17.75;;;5.00;79.60;;;;;;5083140;28;20222;-82
2021/03/02 07:07:40;;;;;;;42.20;18.48;;;4.80;79.70;;;;;;5082660;28;20177;-82
2021/03/02 07:10:08;;;;;;;40.85;17.67;;;4.80;79.70;;;;;;5080491;28;20196;-83
2021/03/02 07:12:53;;;;;;;36.10;18.48;;;4.90;80.00;;;;;;5075744;28;20199;-83
2021/03/02 07:15:20;;;;;;;35.05;16.80;;;4.80;80.00;;;;;;5076486;28;20183;-81
2021/03/02 07:17:50;;;;;;;46.15;19.17;;;4.80;80.00;;;;;;5078104;28;20184;-80
2021/03/02 07:20:17;;;;;;;32.92;15.57;;;4.80;80.10;;;;;;5077689;28;20172;-81
2021/03/02 07:22:53;;;;;;;42.78;16.48;;;4.80;80.20;;;;;;5076537;28;20196;-82
2021/03/02 07:25:22;;;;;;;37.83;19.70;;;4.80;80.30;;;;;;5076054;28;20200;-83
2021/03/02 07:27:51;;;;;;;44.53;17.88;;;4.90;80.40;;;;;;5075358;28;20186;-82
2021/03/02 07:30:18;;;;;;;34.92;17.00;;;4.90;80.30;;;;;;5075823;28;20165;-82
2021/03/02 07:32:44;;;;;;;36.47;19.02;;;4.80;80.20;;;;;;5074873;28;20200;-82
2021/03/02 07:35:21;;;;;;;39.40;17.70;;;4.90;80.40;;;;;;5075308;28;20696;-83
2021/03/02 07:37:49;;;;;;;43.05;23.23;;;4.90;80.50;;;;;;5075466;28;20207;-82
2021/03/02 07:40:17;;;;;;;44.40;22.20;;;5.10;80.40;;;;;;5075038;28;20176;-82
2021/03/02 07:42:43;;;;;;;44.05;20.77;;;5.10;80.20;;;;;;5076472;28;20205;-81
2021/03/02 07:45:15;;;;;;;38.13;18.27;;;5.10;79.90;;;;;;5077376;28;20283;-82
2021/03/02 07:47:51;;;;;;;34.70;17.45;;;5.10;80.00;;;;;;5076954;28;20169;-81
2021/03/02 07:50:24;;;;;;;41.28;19.40;;;5.00;79.90;;;;;;5077005;28;20647;-81
2021/03/02 07:53:24;;;;;;;32.10;17.38;;;5.10;80.00;;;;;;5076958;28;20204;-81
2021/03/02 07:56:23;;;;;;;34.75;18.55;;;5.20;79.80;;;;;;5060753;28;20203;-82
2021/03/02 07:59:04;;;;;;;38.72;18.60;;;5.20;79.60;;;;;;5050450;28;20193;-82
2021/03/02 08:01:31;;;;;;;39.03;19.45;;;5.10;79.90;;;;;;5075051;28;20223;-81
2021/03/02 08:04:16;;;;;;;38.65;17.95;;;5.10;80.00;;;;;;5078660;28;20193;-80
2021/03/02 08:06:43;;;;;;;47.72;18.58;;;5.30;80.10;;;;;;5071914;28;20208;-81
2021/03/02 08:09:28;;;;;;;47.88;19.17;;;5.30;79.70;;;;;;5056932;28;20339;-81
2021/03/02 08:11:55;;;;;;;47.78;19.02;;;5.30;79.50;;;;;;5056533;28;20196;-81
2021/03/02 08:14:21;;;;;;;43.67;19.27;;;5.40;79.20;;;;;;5055169;28;20727;-85
2021/03/02 08:17:02;;;;;;;41.73;20.40;;;5.40;79.00;;;;;;5056350;28;20197;-85
2021/03/02 08:19:38;;;;;;;34.95;18.83;;;5.40;79.00;;;;;;5056646;28;20189;-85
2021/03/02 08:22:19;;;;;;;32.47;16.70;;;5.60;78.90;;;;;;5055346;28;20232;-85
2021/03/02 08:24:57;;;;;;;39.60;19.30;;;5.60;78.50;;;;;;5058878;28;20201;-86
2021/03/02 08:27:42;;;;;;;32.83;17.48;;;5.60;78.10;;;;;;5059571;28;20272;-85
2021/03/02 08:30:14;;;;;;;37.72;17.13;;;5.60;77.80;;;;;;5069639;28;20271;-85
2021/03/02 08:32:41;;;;;;;29.67;15.95;;;5.70;77.90;;;;;;5088483;28;20211;-85
2021/03/02 08:35:27;;;;;;;37.00;16.83;;;5.90;77.90;;;;;;5097234;28;20160;-85
2021/03/02 08:38:03;;;;;;;29.08;16.60;;;6.10;77.20;;;;;;5098234;28;20164;-86
2021/03/02 08:40:31;;;;;;;33.90;15.93;;;6.10;76.70;;;;;;5099075;28;20196;-86
2021/03/02 08:43:23;;;;;;;39.42;16.10;;;6.20;76.60;;;;;;5098430;28;20193;-85
2021/03/02 08:45:54;;;;;;;30.85;15.15;;;6.00;76.20;;;;;;5096623;28;20221;-85
2021/03/02 08:48:38;;;;;;;29.85;17.02;;;6.30;76.50;;;;;;5098096;28;20176;-85
2021/03/02 08:51:08;;;;;;;30.70;15.43;;;6.40;76.10;;;;;;5086206;28;20579;-85
2021/03/02 08:53:41;;;;;;;30.35;15.25;;;6.50;75.90;;;;;;5071744;28;20207;-86
2021/03/02 08:56:14;;;;;;;31.60;16.50;;;6.60;75.50;;;;;;5063823;28;20158;-86
2021/03/02 08:58:42;;;;;;;33.13;14.93;;;6.80;75.00;;;;;;5058479;28;20243;-86
2021/03/02 09:01:11;;;;;;;37.60;14.95;;;6.90;74.20;;;;;;5059825;28;20193;-86
2021/03/02 09:03:39;;;;;;;25.90;14.85;;;6.80;73.80;;;;;;5055452;28;20255;-87
2021/03/02 09:06:13;;;;;;;24.55;15.50;;;7.00;73.70;;;;;;5056413;28;20178;-86
2021/03/02 09:09:08;;;;;;;26.83;14.40;;;7.20;73.60;;;;;;5056383;28;20282;-86
2021/03/02 09:11:46;;;;;;;29.40;14.38;;;7.50;73.10;;;;;;5054285;28;20290;-85
2021/03/02 09:14:13;;;;;;;28.27;14.68;;;7.70;72.10;;;;;;5055009;28;20185;-86
2021/03/02 09:16:50;;;;;;;25.92;15.38;;;7.60;71.90;;;;;;5055267;28;20193;-86
2021/03/02 09:19:35;;;;;;;33.20;14.30;;;7.90;72.00;;;;;;5055036;28;20185;-86
2021/03/02 09:22:03;;;;;;;26.42;13.95;;;8.10;71.50;;;;;;5056198;28;20204;-85
2021/03/02 09:24:32;;;;;;;32.92;15.48;;;8.20;71.00;;;;;;5056449;28;20223;-86
2021/03/02 09:26:59;;;;;;;26.23;15.18;;;8.30;70.60;;;;;;5073960;28;20200;-86
2021/03/02 09:29:27;;;;;;;29.42;13.88;;;8.50;70.60;;;;;;5074749;28;20183;-86
2021/03/02 09:31:57;;;;;;;26.25;13.48;;;8.50;70.00;;;;;;5058759;28;20200;-85
2021/03/02 09:34:40;;;;;;;29.08;15.38;;;8.80;69.80;;;;;;5076183;28;20223;-86
2021/03/02 09:37:13;;;;;;;22.45;12.98;;;8.70;68.80;;;;;;5075521;28;20682;-86
2021/03/02 09:39:42;;;;;;;29.60;15.50;;;8.80;68.90;;;;;;5077063;28;20211;-86
2021/03/02 09:42:21;;;;;;;23.50;14.18;;;8.90;68.70;;;;;;5078544;28;20216;-86
2021/03/02 09:44:50;;;;;;;29.70;14.35;;;9.00;68.40;;;;;;5080489;28;20321;-86
2021/03/02 09:47:23;;;;;;;28.70;14.07;;;8.90;68.10;;;;;;5083861;28;20179;-86
2021/03/02 09:50:21;;;;;;;24.15;13.68;;;9.00;67.60;;;;;;5085043;28;20181;-86
2021/03/02 09:52:50;;;;;;;28.13;12.65;;;9.20;67.60;;;;;;5081796;28;20201;-86
2021/03/02 09:55:19;;;;;;;25.05;13.63;;;9.40;67.00;;;;;;5080628;28;20187;-85
2021/03/02 09:58:00;;;;;;;38.05;14.10;;;9.60;66.20;;;;;;5077835;28;20187;-86
2021/03/02 10:00:31;;;;;;;23.55;12.25;;;9.70;65.40;;;;;;5086274;28;20244;-87
2021/03/02 10:02:59;;;;;;;22.63;12.00;;;9.50;64.70;;;;;;5081166;28;20204;-86
2021/03/02 10:06:00;;;;;;;24.77;13.00;;;9.50;65.10;;;;;;5077597;28;20201;-87
2021/03/02 10:08:34;;;;;;;21.75;11.93;;;9.60;65.30;;;;;;5079325;28;20173;-86
2021/03/02 10:11:04;;;;;;;20.48;11.93;;;9.90;64.80;;;;;;5075212;28;20187;-86
2021/03/02 10:13:36;;;;;;;19.30;11.57;;;10.00;63.30;;;;;;5075392;28;20199;-85
2021/03/02 10:16:23;;;;;;;21.05;12.30;;;9.90;63.20;;;;;;5077032;28;20176;-86
2021/03/02 10:18:53;;;;;;;32.60;13.45;;;10.00;63.00;;;;;;5075845;28;20200;-86
2021/03/02 10:21:19;;;;;;;94.57;20.45;;;10.20;62.80;;;;;;5078602;28;20566;-86
2021/03/02 10:23:54;;;;;;;31.33;13.55;;;10.30;62.00;;;;;;5076929;28;20204;-86
2021/03/02 10:26:23;;;;;;;36.30;14.70;;;10.40;61.30;;;;;;5079010;28;20200;-87
2021/03/02 10:28:49;;;;;;;21.20;10.88;;;10.40;60.70;;;;;;5075471;28;20176;-85
2021/03/02 10:31:16;;;;;;;28.03;13.63;;;10.40;60.70;;;;;;5073999;28;20185;-86
2021/03/02 10:33:41;;;;;;;29.67;12.75;;;10.40;60.80;;;;;;5074152;28;20427;-85
2021/03/02 10:36:25;;;;;;;24.37;12.37;;;10.40;60.90;;;;;;5073936;28;20185;-87
2021/03/02 10:38:52;;;;;;;19.90;12.73;;;10.80;61.00;;;;;;5078678;28;20180;-87
2021/03/02 10:41:19;;;;;;;23.80;13.10;;;10.90;60.30;;;;;;5092490;28;20204;-86
2021/03/02 10:43:45;;;;;;;24.33;12.07;;;10.90;60.20;;;;;;5089882;28;20239;-86
2021/03/02 10:46:11;;;;;;;35.25;13.65;;;10.80;59.80;;;;;;5088971;28;20173;-85
2021/03/02 10:48:38;;;;;;;26.37;12.90;;;10.90;59.50;;;;;;5089202;28;20219;-87
2021/03/02 10:51:04;;;;;;;29.40;13.45;;;11.00;59.10;;;;;;5091808;28;20208;-86
2021/03/02 10:53:30;;;;;;;20.80;12.05;;;11.20;59.40;;;;;;5079218;28;20222;-86
2021/03/02 10:55:55;;;;;;;30.53;14.13;;;11.10;58.80;;;;;;5076615;28;20176;-86
2021/03/02 10:58:21;;;;;;;25.70;13.97;;;11.30;59.10;;;;;;5075901;28;20661;-85
2021/03/02 11:00:47;;;;;;;24.37;12.70;;;11.50;58.80;;;;;;5077644;28;20488;-85
2021/03/02 11:03:13;;;;;;;21.43;12.10;;;11.70;58.30;;;;;;5077949;28;20553;-85
2021/03/02 11:05:38;;;;;;;21.90;12.70;;;11.80;58.00;;;;;;5074096;28;20844;-85
2021/03/02 11:08:05;;;;;;;26.67;15.03;;;11.60;57.70;;;;;;5073792;28;20185;-85
2021/03/02 11:10:31;;;;;;;22.55;14.57;;;11.70;57.90;;;;;;5075497;28;20173;-85
2021/03/02 11:12:57;;;;;;;18.83;12.48;;;11.90;57.70;;;;;;5078219;28;20263;-85
2021/03/02 11:15:23;;;;;;;24.17;14.32;;;11.90;57.30;;;;;;5076854;28;20177;-85
2021/03/02 11:17:49;;;;;;;23.83;14.73;;;11.90;57.30;;;;;;5077169;28;20601;-85
2021/03/02 11:20:16;;;;;;;22.43;13.30;;;11.90;57.60;;;;;;5076764;28;20305;-86
2021/03/02 11:22:42;;;;;;;28.70;13.65;;;11.90;58.20;;;;;;5077074;28;20526;-87
2021/03/02 11:25:09;;;;;;;26.40;13.90;;;12.10;57.80;;;;;;5072431;28;20225;-87
2021/03/02 11:27:35;;;;;;;24.75;14.10;;;12.40;57.10;;;;;;5056060;28;20250;-87
2021/03/02 11:30:00;;;;;;;25.87;14.30;;;12.20;57.10;;;;;;5063127;28;20267;-86
2021/03/02 11:32:26;;;;;;;22.30;13.93;;;12.40;57.30;;;;;;5081936;28;20430;-86
2021/03/02 11:34:52;;;;;;;27.57;14.80;;;12.30;57.20;;;;;;5079642;28;20181;-85
2021/03/02 11:37:18;;;;;;;19.60;14.03;;;12.40;57.20;;;;;;5080184;28;20188;-86
2021/03/02 11:39:43;;;;;;;23.70;14.00;;;12.60;58.40;;;;;;5080232;28;20551;-85
2021/03/02 11:42:09;;;;;;;33.13;14.03;;;12.80;58.20;;;;;;5080612;28;20838;-85
2021/03/02 11:44:35;;;;;;;31.23;14.13;;;12.90;57.30;;;;;;5081100;28;20204;-85
2021/03/02 11:47:01;;;;;;;28.23;15.03;;;12.60;56.10;;;;;;5081335;28;20466;-85
2021/03/02 11:49:26;;;;;;;27.27;14.33;;;12.40;55.70;;;;;;5082419;28;20165;-86
2021/03/02 11:51:52;;;;;;;22.33;12.87;;;12.60;55.50;;;;;;5064040;28;20212;-85
2021/03/02 11:54:18;;;;;;;31.60;15.80;;;13.00;56.30;;;;;;5063345;28;20278;-86
2021/03/02 11:56:44;;;;;;;23.87;13.53;;;12.70;55.40;;;;;;5061949;28;20192;-85
2021/03/02 11:59:12;;;;;;;28.03;14.80;;;12.80;55.70;;;;;;5062698;28;20581;-85
2021/03/02 12:01:38;;;;;;;25.67;13.57;;;13.10;56.00;;;;;;5062343;28;20209;-85
2021/03/02 12:04:04;;;;;;;24.83;14.87;;;13.20;56.00;;;;;;5065981;28;20235;-85
2021/03/02 12:06:29;;;;;;;25.30;13.85;;;13.20;55.50;;;;;;5083579;28;20191;-87
2021/03/02 12:08:55;;;;;;;26.40;14.47;;;13.30;55.50;;;;;;5083322;28;20176;-86
2021/03/02 12:11:21;;;;;;;27.60;13.50;;;13.60;55.70;;;;;;5082890;28;20195;-87
2021/03/02 12:13:47;;;;;;;34.73;13.83;;;13.80;55.40;;;;;;5083203;28;20184;-86
2021/03/02 12:16:13;;;;;;;28.07;13.50;;;13.80;55.30;;;;;;5077409;28;20647;-84
2021/03/02 12:18:38;;;;;;;27.90;14.50;;;13.90;53.90;;;;;;5077865;28;20448;-86
2021/03/02 12:21:04;;;;;;;38.57;16.50;;;13.70;52.90;;;;;;5076435;28;20204;-87
2021/03/02 12:23:30;;;;;;;27.83;14.43;;;13.80;53.90;;;;;;5077889;28;20227;-86
2021/03/02 12:25:55;;;;;;;24.73;13.10;;;13.90;53.50;;;;;;5078301;28;20180;-85
2021/03/02 12:28:21;;;;;;;22.27;13.80;;;14.00;54.00;;;;;;5078050;28;20555;-87
2021/03/02 12:30:47;;;;;;;23.87;14.67;;;14.10;53.80;;;;;;5078613;28;20498;-87
2021/03/02 12:33:13;;;;;;;31.27;14.53;;;13.90;52.60;;;;;;5077561;28;20586;-84
2021/03/02 12:35:38;;;;;;;31.97;16.53;;;13.70;53.20;;;;;;5077417;28;20430;-84
2021/03/02 12:38:05;;;;;;;27.17;14.57;;;13.80;53.60;;;;;;5080474;28;20212;-85
2021/03/02 12:40:31;;;;;;;36.22;14.15;;;13.80;53.70;;;;;;5078406;28;20220;-86
2021/03/02 12:42:57;;;;;;;50.70;15.57;;;13.90;53.00;;;;;;5079962;28;20204;-85
2021/03/02 12:45:23;;;;;;;21.27;12.97;;;14.20;54.00;;;;;;5077776;28;20208;-84
2021/03/02 12:47:48;;;;;;;31.30;14.20;;;14.20;52.60;;;;;;5077225;28;20179;-86
2021/03/02 12:50:17;;;;;;;20.97;13.07;;;14.30;52.50;;;;;;5078295;28;20415;-86